If you wish to contribute or participate in the discussions about articles you are invited to join SKYbrary as a registered user

 Actions

Urmia Airport

From SKYbrary Wiki

OITR
Airport
ICAO: OITR – IATA: OMH
Summary
Name Urmia Airport
Region Middle East
Territory Iran IR.gif
Location Asgar Abad, West Azerbijan Province
Serving Urmia
Elevation 1,323.746 m
4,343 ft1,323.746 m
Coordinates 37° 39' 44.64" N, 45° 3' 33.15" E
Runways
Designator Length Width Surface ROPS
3/21 3249 m10,659.449 ft
45 m147.638 ft
ASP /


METAR
Observation OITR 191330Z 27019KT 9999 FEW030CB SCT035 10/01 Q1007
Station Orumieh
Date/Time 19 April 2019 13:30:00
Wind direction 270°
Wind speed 19 kts
Lowest cloud amount few clouds
Temperature 10°C
Dew point 1°C
Humidity 53%
QNH 1007 hPa
Weather condition n/a

Airport serving the central district of Urmia County, Iran. The airport is located some 13km7.019 nm
13,000 m
42,650.919 ft
north of the city of Urmia.

Climatology

Cold semi-arid climate (Köppen climate classification BSk).

Maps

Terrain

Loading map...

Airport Layout

Loading map...


Accidents & Serious Incidents at or in vicinity of OITR

None on SKYbrary